Time;durP1;ratioP1;P1;durP2;ratioP2;P2;SDS_P1;SDS_P2;PMS_P1;PMS_P2;Temp;Humidity;BMP_temperature;BMP_pressure;BME280_temperature;BME280_humidity;BME280_pressure;Samples;Min_cycle;Max_cycle;Signal;HPM_P1;HPM_P2
2021/04/12 00:01:06;;;;;;;6.10;1.95;;;;;;;13.43;55.36;101890.97;5010265;28;20048;-74
2021/04/12 00:03:36;;;;;;;5.30;2.05;;;;;;;13.41;55.39;101896.22;4980757;28;20042;-74
2021/04/12 00:06:11;;;;;;;3.25;2.00;;;;;;;13.41;55.28;101877.66;5004363;28;20095;-74
2021/04/12 00:08:47;;;;;;;4.32;1.80;;;;;;;13.43;55.63;101869.75;4998164;28;20490;-73
2021/04/12 00:11:28;;;;;;;7.82;2.40;;;;;;;13.39;55.94;101868.75;5010604;28;20042;-74
2021/04/12 00:14:00;;;;;;;7.95;2.97;;;;;;;13.34;55.95;101873.06;4992851;28;20084;-73
2021/04/12 00:16:31;;;;;;;6.82;2.58;;;;;;;13.33;56.20;101870.38;5010547;28;20037;-74
2021/04/12 00:19:03;;;;;;;5.13;2.33;;;;;;;13.34;56.46;101862.47;5010661;28;20644;-74
2021/04/12 00:21:37;;;;;;;6.85;2.20;;;;;;;13.34;56.70;101861.56;4993440;28;20444;-73
2021/04/12 00:24:11;;;;;;;6.93;2.35;;;;;;;13.34;56.95;101861.56;5008286;28;20395;-74
2021/04/12 00:26:46;;;;;;;4.75;2.17;;;;;;;13.33;57.25;101851.81;5008833;28;20073;-73
2021/04/12 00:29:20;;;;;;;5.38;2.45;;;;;;;13.33;57.45;101849.16;5009394;28;20054;-74
2021/04/12 00:31:53;;;;;;;6.20;2.08;;;;;;;13.32;57.65;101856.25;5010701;28;20053;-73
2021/04/12 00:34:25;;;;;;;6.32;2.35;;;;;;;13.33;57.99;101839.44;5009988;28;20113;-74
2021/04/12 00:36:58;;;;;;;8.10;2.50;;;;;;;13.39;57.86;101859.94;5007903;28;20078;-74
2021/04/12 00:39:36;;;;;;;7.50;2.83;;;;;;;13.41;58.14;101851.13;5010000;28;20045;-74
2021/04/12 00:42:19;;;;;;;4.88;2.15;;;;;;;13.39;58.23;101841.38;5008363;28;20121;-73
2021/04/12 00:45:15;;;;;;;7.78;2.25;;;;;;;13.39;58.31;101826.31;4993343;28;20058;-74
2021/04/12 00:47:55;;;;;;;5.28;1.90;;;;;;;13.38;58.47;101837.81;5007745;28;20041;-74
2021/04/12 00:50:33;;;;;;;5.03;2.35;;;;;;;13.39;58.54;101844.88;5009866;28;20041;-74
2021/04/12 00:53:28;;;;;;;5.30;2.33;;;;;;;13.41;58.67;101839.63;5008589;28;20049;-74
2021/04/12 00:55:58;;;;;;;6.38;2.53;;;;;;;13.37;58.73;101830.72;4997943;28;20443;-74
2021/04/12 00:58:41;;;;;;;7.75;2.60;;;;;;;13.37;58.50;101821.88;5001709;28;20038;-73
2021/04/12 01:01:26;;;;;;;6.25;2.20;;;;;;;13.34;58.18;101829.75;4980789;28;20038;-73
2021/04/12 01:04:08;;;;;;;4.70;2.03;;;;;;;13.34;57.98;101835.94;4988682;28;20076;-73
2021/04/12 01:06:57;;;;;;;6.25;2.95;;;;;;;13.32;57.83;101826.19;5007116;28;20064;-73
2021/04/12 01:10:04;;;;;;;7.22;2.28;;;;;;;13.30;57.86;101827.91;5008944;28;20038;-74
2021/04/12 01:13:00;;;;;;;8.30;2.35;;;;;;;13.30;58.01;101844.72;4993959;28;20042;-73
2021/04/12 01:15:49;;;;;;;7.45;2.30;;;;;;;13.26;57.92;101837.53;5008362;28;20058;-74
2021/04/12 01:18:37;;;;;;;5.45;2.58;;;;;;;13.31;58.25;101853.56;5008987;28;20129;-74
2021/04/12 01:21:40;;;;;;;7.40;2.47;;;;;;;13.33;58.12;101843.84;5008665;28;20038;-74
2021/04/12 01:24:52;;;;;;;11.48;2.97;;;;;;;13.34;58.72;101827.09;4990857;28;20057;-73
2021/04/12 01:27:54;;;;;;;5.28;2.38;;;;;;;13.33;58.85;101818.22;5009191;28;20125;-73
2021/04/12 01:31:06;;;;;;;5.85;2.50;;;;;;;13.28;58.93;101817.25;4989379;28;20050;-74
2021/04/12 01:34:24;;;;;;;5.25;2.30;;;;;;;13.23;58.85;101845.44;4959354;28;20042;-74
2021/04/12 01:37:14;;;;;;;5.40;2.80;;;;;;;13.18;58.76;101849.75;4994246;28;20034;-73
2021/04/12 01:39:51;;;;;;;8.18;2.80;;;;;;;13.17;58.77;101858.56;5009095;28;20061;-73
2021/04/12 01:42:40;;;;;;;11.70;3.33;;;;;;;13.22;58.53;101848.94;5009319;28;20053;-73
2021/04/12 01:45:23;;;;;;;5.85;2.70;;;;;;;13.17;58.39;101829.38;4991559;28;20064;-74
2021/04/12 01:48:08;;;;;;;6.80;2.30;;;;;;;13.15;58.31;101829.34;5005663;28;20044;-73
2021/04/12 01:51:06;;;;;;;8.52;2.85;;;;;;;13.15;58.06;101833.75;4980519;28;20054;-74
2021/04/12 01:53:59;;;;;;;5.00;2.10;;;;;;;13.14;57.96;101845.22;5008547;28;20497;-74
2021/04/12 01:56:38;;;;;;;2.53;1.63;;;;;;;13.15;57.75;101841.72;5007974;28;20103;-74
2021/04/12 01:59:22;;;;;;;3.83;2.20;;;;;;;13.15;57.60;101833.75;4990679;28;20129;-74
2021/04/12 02:02:24;;;;;;;6.28;2.17;;;;;;;13.16;57.37;101836.44;4994621;28;20041;-73
2021/04/12 02:05:36;;;;;;;4.63;1.92;;;;;;;13.13;57.29;101827.50;5005330;28;20124;-74
2021/04/12 02:08:15;;;;;;;5.53;2.20;;;;;;;13.09;57.27;101841.53;4917868;29;20058;-74
2021/04/12 02:11:03;;;;;;;6.05;2.83;;;;;;;13.00;57.41;101839.56;4989740;28;20050;-74
2021/04/12 02:13:51;;;;;;;3.55;2.05;;;;;;;13.00;57.37;101823.66;4995452;28;20038;-73
2021/04/12 02:16:33;;;;;;;7.90;1.92;;;;;;;12.99;57.58;101816.59;5003895;28;20109;-74
2021/04/12 02:19:20;;;;;;;6.72;2.17;;;;;;;12.99;57.64;101816.59;4991479;28;20377;-73
2021/04/12 02:21:59;;;;;;;4.47;2.25;;;;;;;12.98;57.62;101819.19;5008206;28;20504;-74
2021/04/12 02:24:34;;;;;;;6.43;2.33;;;;;;;12.94;57.52;101826.16;4989108;28;20428;-74
2021/04/12 02:27:14;;;;;;;6.43;2.20;;;;;;;12.96;57.39;101840.38;5004967;28;20036;-74
2021/04/12 02:29:57;;;;;;;8.48;1.80;;;;;;;12.98;56.85;101825.41;4991120;28;20417;-73
2021/04/12 02:32:49;;;;;;;8.93;2.78;;;;;;;12.94;56.80;101799.66;5005149;28;20130;-74
2021/04/12 02:35:29;;;;;;;5.70;2.03;;;;;;;12.88;56.84;101806.59;4995580;28;20038;-73
2021/04/12 02:38:03;;;;;;;7.43;2.17;;;;;;;12.83;56.73;101803.84;5000194;28;20049;-74
2021/04/12 02:41:00;;;;;;;6.85;2.30;;;;;;;12.81;56.54;101809.94;4996421;28;20049;-74
2021/04/12 02:43:49;;;;;;;6.00;2.28;;;;;;;12.75;56.58;101803.66;4989798;28;20042;-74
2021/04/12 02:46:26;;;;;;;7.15;3.13;;;;;;;12.72;56.55;101805.34;5003694;28;20125;-73
2021/04/12 02:49:00;;;;;;;6.93;2.55;;;;;;;12.71;56.64;101807.09;4993085;28;20038;-74
2021/04/12 02:51:51;;;;;;;7.90;3.05;;;;;;;12.69;57.11;101822.06;5004065;28;20569;-72
2021/04/12 02:54:37;;;;;;;6.65;2.42;;;;;;;12.66;57.07;101832.59;4997547;28;20117;-74
2021/04/12 02:57:22;;;;;;;6.10;2.50;;;;;;;12.59;57.06;101835.97;5008185;28;20046;-73
2021/04/12 03:00:12;;;;;;;4.35;2.40;;;;;;;12.58;57.35;101833.25;4983902;28;20519;-74
2021/04/12 03:02:58;;;;;;;7.68;3.95;;;;;;;12.60;56.95;101845.66;4975430;28;20046;-73
2021/04/12 03:05:48;;;;;;;5.38;2.55;;;;;;;12.58;56.94;101847.41;5000296;28;20720;-74
2021/04/12 03:08:41;;;;;;;5.78;2.20;;;;;;;12.58;56.83;101844.75;4990014;28;20438;-74
2021/04/12 03:11:47;;;;;;;7.93;2.20;;;;;;;12.56;56.77;101838.50;4993841;28;20034;-73
2021/04/12 03:14:53;;;;;;;8.07;2.30;;;;;;;12.52;56.90;101834.00;4994263;28;20522;-73
2021/04/12 03:17:55;;;;;;;5.70;2.53;;;;;;;12.51;57.05;101821.63;5003020;28;20048;-73
2021/04/12 03:21:13;;;;;;;8.30;2.22;;;;;;;12.46;57.22;101817.06;5001457;28;20125;-73
2021/04/12 03:24:04;;;;;;;7.35;2.22;;;;;;;12.39;57.31;101821.31;4934246;29;20051;-74
2021/04/12 03:26:47;;;;;;;3.38;2.13;;;;;;;12.37;57.80;101815.97;5003903;28;20044;-73
2021/04/12 03:29:27;;;;;;;3.92;2.13;;;;;;;12.34;58.06;101815.88;4993989;28;20042;-73
2021/04/12 03:32:10;;;;;;;5.25;2.38;;;;;;;12.35;58.02;101822.06;5011316;28;20046;-73
2021/04/12 03:34:41;;;;;;;8.80;2.47;;;;;;;12.38;58.01;101822.16;5011414;28;20042;-73
2021/04/12 03:37:56;;;;;;;4.90;2.60;;;;;;;12.38;57.89;101824.81;4993931;28;20511;-73
2021/04/12 03:40:28;;;;;;;4.43;2.33;;;;;;;12.38;57.49;101827.47;4947683;28;20043;-74
2021/04/12 03:43:34;;;;;;;8.98;2.55;;;;;;;12.40;57.21;101833.72;4950244;28;20053;-73
2021/04/12 03:46:35;;;;;;;6.10;2.50;;;;;;;12.42;56.78;101837.28;4984280;28;20038;-74
2021/04/12 03:49:53;;;;;;;4.32;1.92;;;;;;;12.42;56.49;101846.97;5011029;28;20037;-74
2021/04/12 03:52:42;;;;;;;7.25;2.35;;;;;;;12.42;56.18;101845.22;5002998;28;20376;-74
2021/04/12 03:55:27;;;;;;;4.18;2.20;;;;;;;12.41;55.93;101845.16;5009724;28;20121;-74
2021/04/12 03:58:33;;;;;;;5.78;2.10;;;;;;;12.46;55.67;101840.91;5010521;28;20044;-73
2021/04/12 04:01:34;;;;;;;5.22;2.20;;;;;;;12.48;55.55;101832.13;5000909;28;20052;-73
2021/04/12 04:04:26;;;;;;;7.78;2.40;;;;;;;12.55;55.51;101823.47;4991063;28;20034;-74
2021/04/12 04:07:22;;;;;;;5.93;2.72;;;;;;;12.66;55.60;101829.06;5011323;28;20042;-73
2021/04/12 04:09:58;;;;;;;5.72;2.58;;;;;;;12.76;55.57;101818.69;4986111;28;20436;-74
2021/04/12 04:12:51;;;;;;;6.38;2.30;;;;;;;12.88;55.55;101831.34;5001711;28;20108;-74
2021/04/12 04:15:36;;;;;;;4.78;2.53;;;;;;;12.96;55.48;101839.47;4990647;28;20050;-74
2021/04/12 04:18:25;;;;;;;5.65;3.47;;;;;;;12.98;55.44;101851.91;5003433;28;20041;-74
2021/04/12 04:21:31;;;;;;;9.38;2.40;;;;;;;13.03;55.63;101852.00;5008250;28;20048;-74
2021/04/12 04:24:32;;;;;;;6.63;2.72;;;;;;;13.02;55.88;101852.88;4995096;28;20046;-74
2021/04/12 04:27:29;;;;;;;7.18;2.65;;;;;;;13.06;55.97;101854.75;5009589;28;20561;-73
2021/04/12 04:30:11;;;;;;;9.10;2.17;;;;;;;13.06;55.76;101842.34;5005890;28;20040;-74
2021/04/12 04:33:08;;;;;;;6.18;2.50;;;;;;;13.18;55.54;101847.09;4999598;28;20571;-74
2021/04/12 04:36:01;;;;;;;4.53;2.10;;;;;;;13.25;55.09;101846.38;4978589;28;20046;-74
2021/04/12 04:38:50;;;;;;;5.05;2.10;;;;;;;13.38;54.76;101843.13;5006017;28;20526;-74
2021/04/12 04:41:32;;;;;;;5.32;3.05;;;;;;;13.48;54.54;101847.75;5009650;28;20045;-74
2021/04/12 04:44:35;;;;;;;7.25;2.50;;;;;;;13.63;54.75;101846.28;4990612;28;20125;-74
2021/04/12 04:47:43;;;;;;;6.82;2.40;;;;;;;13.72;54.83;101850.00;5005353;28;20034;-74
2021/04/12 04:50:31;;;;;;;8.32;2.92;;;;;;;13.85;54.84;101854.69;5003561;28;20033;-74
2021/04/12 04:53:25;;;;;;;8.65;2.50;;;;;;;14.10;54.62;101841.91;5009245;28;20061;-74
2021/04/12 04:56:04;;;;;;;6.82;2.65;;;;;;;14.13;54.56;101844.59;5009901;28;20038;-74
2021/04/12 04:58:47;;;;;;;6.45;3.20;;;;;;;14.03;55.02;101851.53;5003942;28;20048;-74
2021/04/12 05:01:35;;;;;;;6.72;3.55;;;;;;;14.04;54.71;101858.63;4991299;28;20046;-74
2021/04/12 05:04:18;;;;;;;7.47;3.20;;;;;;;14.13;54.68;101864.09;4999809;28;20034;-74
2021/04/12 05:07:24;;;;;;;7.50;2.88;;;;;;;14.27;54.62;101851.06;5009666;28;20202;-74
2021/04/12 05:10:10;;;;;;;8.18;2.90;;;;;;;14.33;54.36;101849.41;5009010;28;20120;-73
2021/04/12 05:13:05;;;;;;;6.60;2.60;;;;;;;14.57;53.79;101845.44;5008970;28;20062;-73
2021/04/12 05:15:53;;;;;;;4.97;1.90;;;;;;;14.89;53.27;101838.88;5008050;28;20535;-75
2021/04/12 05:18:45;;;;;;;4.50;2.05;;;;;;;14.95;52.62;101838.06;5005694;28;20046;-74
2021/04/12 05:21:54;;;;;;;6.93;2.75;;;;;;;15.09;52.81;101840.06;5008864;28;20474;-74
2021/04/12 05:25:05;;;;;;;4.93;1.95;;;;;;;15.50;51.81;101845.03;4983554;28;20053;-74
2021/04/12 05:27:59;;;;;;;5.05;2.63;;;;;;;15.84;51.34;101863.25;4929533;28;20047;-74
2021/04/12 05:30:49;;;;;;;7.22;2.65;;;;;;;16.08;50.55;101861.75;5004456;28;20061;-74
2021/04/12 05:33:30;;;;;;;4.70;2.25;;;;;;;16.29;50.13;101837.97;4998067;28;20543;-75
2021/04/12 05:36:17;;;;;;;4.10;1.88;;;;;;;16.54;49.78;101831.09;5009000;28;20048;-76
2021/04/12 05:39:16;;;;;;;4.78;2.10;;;;;;;16.77;49.25;101823.28;4997931;28;21115;-73
2021/04/12 05:41:57;;;;;;;5.50;1.88;;;;;;;16.94;48.99;101830.53;5008209;28;20185;-75
2021/04/12 05:44:48;;;;;;;5.10;2.38;;;;;;;17.09;47.78;101843.06;5006822;28;20033;-75
2021/04/12 05:47:45;;;;;;;8.98;3.30;;;;;;;17.17;47.13;101820.00;4998758;28;20077;-74
2021/04/12 05:50:20;;;;;;;5.22;2.53;;;;;;;17.00;46.42;101835.91;4997507;28;20390;-74
2021/04/12 05:53:12;;;;;;;5.97;2.75;;;;;;;16.92;46.38;101840.31;4997195;28;20490;-74
2021/04/12 05:56:21;;;;;;;8.18;3.95;;;;;;;16.94;46.49;101846.53;4984838;28;20073;-74
2021/04/12 05:59:10;;;;;;;8.88;3.90;;;;;;;16.88;47.05;101856.25;4951163;28;20051;-74
2021/04/12 06:02:28;;;;;;;6.53;3.15;;;;;;;17.06;46.66;101867.09;5002695;28;20129;-75
2021/04/12 06:05:06;;;;;;;6.63;2.30;;;;;;;17.28;46.26;101858.31;4947115;28;20046;-74
2021/04/12 06:07:58;;;;;;;4.45;2.28;;;;;;;17.53;45.86;101862.88;4947683;29;20049;-75
2021/04/12 06:10:48;;;;;;;7.47;2.80;;;;;;;17.89;45.45;101866.66;4984429;28;20084;-75
2021/04/12 06:13:41;;;;;;;6.05;2.60;;;;;;;18.26;45.13;101879.22;5006597;28;20403;-75
2021/04/12 06:16:20;;;;;;;7.57;3.08;;;;;;;18.60;44.86;101873.94;5007020;28;20045;-75
2021/04/12 06:19:33;;;;;;;7.25;2.72;;;;;;;18.98;44.27;101882.84;4991145;28;20065;-75
2021/04/12 06:22:28;;;;;;;6.60;2.80;;;;;;;19.06;43.91;101885.50;4964636;28;20254;-75
2021/04/12 06:25:20;;;;;;;5.70;2.25;;;;;;;19.14;43.41;101877.47;5007189;28;20053;-75
2021/04/12 06:28:14;;;;;;;5.68;2.15;;;;;;;18.64;44.02;101871.25;4990128;28;20030;-76
2021/04/12 06:30:51;;;;;;;;;;;;;;;18.59;43.82;101877.50;5000234;28;20065;-76
2021/04/12 06:33:43;;;;;;;6.53;2.42;;;;;;;18.19;44.47;101885.41;5006491;28;19929;-77
2021/04/12 06:37:06;;;;;;;5.88;2.17;;;;;;;18.38;44.61;101898.84;5004130;28;20042;-76
2021/04/12 06:40:17;;;;;;;7.25;2.55;;;;;;;18.86;43.60;101887.31;5002732;28;20056;-76
2021/04/12 06:43:14;;;;;;;8.88;2.20;;;;;;;19.36;42.94;101881.91;4996379;28;20132;-75
2021/04/12 06:46:18;;;;;;;6.28;2.90;;;;;;;19.68;43.00;101869.31;5011115;28;20045;-75
2021/04/12 06:49:21;;;;;;;5.43;2.97;;;;;;;19.92;41.90;101867.41;5010813;28;20046;-75
2021/04/12 06:52:35;;;;;;;7.25;2.88;;;;;;;19.84;40.82;101883.53;5009226;28;20288;-76
2021/04/12 06:55:20;;;;;;;7.07;3.77;;;;;;;20.07;40.55;101895.06;5000236;28;20038;-76
2021/04/12 06:58:33;;;;;;;5.05;1.75;;;;;;;19.96;40.38;101901.34;5003039;28;20642;-75
2021/04/12 07:01:34;;;;;;;6.60;2.28;;;;;;;20.24;40.88;101900.31;5006323;28;20038;-77
2021/04/12 07:04:55;;;;;;;4.72;1.73;;;;;;;20.50;40.13;101881.38;5010548;28;20042;-77
2021/04/12 07:07:37;;;;;;;6.88;1.90;;;;;;;20.64;39.63;101875.03;4998879;28;20489;-77
2021/04/12 07:10:33;;;;;;;3.33;1.70;;;;;;;20.78;39.12;101887.44;5005239;28;20045;-78
2021/04/12 07:13:15;;;;;;;8.20;2.13;;;;;;;20.88;39.38;101887.34;5011782;28;20116;-77
2021/04/12 07:16:05;;;;;;;9.57;1.90;;;;;;;21.04;39.35;101888.09;5002872;28;20053;-78
2021/04/12 07:19:19;;;;;;;5.68;1.73;;;;;;;21.17;39.03;101894.28;4993586;28;20176;-79
2021/04/12 07:22:29;;;;;;;5.78;1.83;;;;;;;21.41;39.37;101891.31;4914549;29;20044;-79
2021/04/12 07:25:38;;;;;;;5.18;1.80;;;;;;;21.57;38.94;101889.38;4983972;28;20558;-80
2021/04/12 07:28:34;;;;;;;8.32;3.08;;;;;;;21.36;38.85;101882.44;4987241;28;20041;-79
2021/04/12 07:31:33;;;;;;;17.30;3.33;;;;;;;21.11;39.39;101881.75;4983786;28;20061;-80
2021/04/12 07:34:19;;;;;;;7.63;3.08;;;;;;;21.18;39.41;101894.28;4972579;28;20038;-78
2021/04/12 07:37:21;;;;;;;7.05;2.88;;;;;;;21.48;39.28;101895.72;4975848;28;20050;-80
2021/04/12 07:40:38;;;;;;;7.93;3.60;;;;;;;21.69;38.32;101895.47;4991948;28;20517;-81
2021/04/12 07:43:56;;;;;;;9.88;3.30;;;;;;;21.78;37.65;101894.50;4990994;28;20121;-80
2021/04/12 07:47:05;;;;;;;11.63;3.72;;;;;;;22.01;38.37;101889.72;5022766;28;20034;-79
2021/04/12 07:50:08;;;;;;;5.97;3.13;;;;;;;22.03;38.81;101898.69;4996429;28;20072;-80
2021/04/12 07:53:18;;;;;;;13.55;5.05;;;;;;;22.10;37.74;101894.09;4996715;28;20046;-80
2021/04/12 07:56:24;;;;;;;7.10;2.78;;;;;;;21.98;37.71;101894.28;5003679;28;20044;-81
2021/04/12 07:59:36;;;;;;;8.10;2.25;;;;;;;22.19;37.62;101896.63;5011730;28;20096;-81
2021/04/12 08:02:36;;;;;;;8.88;2.80;;;;;;;22.49;37.32;101909.66;5009303;28;20107;-81
2021/04/12 08:05:46;;;;;;;7.30;2.40;;;;;;;22.64;37.09;101905.84;4999750;28;20781;-80
2021/04/12 08:08:41;;;;;;;8.20;3.17;;;;;;;22.72;37.20;101903.00;5018992;28;20091;-81
2021/04/12 08:11:44;;;;;;;5.32;2.10;;;;;;;22.78;36.49;101882.28;5006294;28;20042;-81
2021/04/12 08:15:22;;;;;;;9.25;2.75;;;;;;;22.82;36.20;101902.00;5006775;28;20049;-81
2021/04/12 08:18:12;;;;;;;4.85;2.22;;;;;;;22.71;36.49;101909.34;5005476;28;20050;-82
2021/04/12 08:21:10;;;;;;;8.55;2.92;;;;;;;22.89;36.49;101912.66;5008414;28;20133;-81
2021/04/12 08:24:09;;;;;;;4.70;2.25;;;;;;;22.91;35.98;101893.75;5004113;28;20129;-80
2021/04/12 08:27:10;;;;;;;6.55;2.70;;;;;;;22.92;35.93;101899.13;4994663;28;20045;-79
2021/04/12 08:30:10;;;;;;;7.10;2.47;;;;;;;22.75;35.88;101895.81;5000260;28;20046;-80
2021/04/12 08:33:20;;;;;;;6.18;2.47;;;;;;;22.91;36.72;101901.81;4997836;28;20124;-79
2021/04/12 08:36:34;;;;;;;5.72;1.83;;;;;;;23.33;36.47;101900.19;5000234;28;20046;-80
2021/04/12 08:39:27;;;;;;;8.18;2.03;;;;;;;23.05;36.26;101911.44;5010159;28;20113;-77
2021/04/12 08:42:18;;;;;;;4.90;2.10;;;;;;;23.02;36.37;101899.84;4993378;28;20082;-79
2021/04/12 08:45:36;;;;;;;5.00;1.85;;;;;;;23.33;35.99;101913.66;4994672;28;20125;-81
2021/04/12 08:48:48;;;;;;;4.30;1.88;;;;;;;23.05;36.15;101900.69;4948050;28;20540;-78
2021/04/12 08:51:44;;;;;;;4.30;1.73;;;;;;;22.33;37.12;101901.81;4922691;28;20101;-79
2021/04/12 08:54:43;;;;;;;4.13;1.88;;;;;;;22.00;38.11;101900.50;4973861;28;20205;-78
2021/04/12 08:57:48;;;;;;;7.80;2.13;;;;;;;22.10;38.01;101905.75;4986449;28;20044;-78
2021/04/12 09:00:58;;;;;;;7.05;2.30;;;;;;;22.32;37.88;101914.38;5006190;28;20403;-77
2021/04/12 09:04:07;;;;;;;7.55;2.50;;;;;;;22.99;37.30;101905.28;5006251;28;20403;-79
2021/04/12 09:07:13;;;;;;;4.55;1.77;;;;;;;23.27;36.48;101916.47;4979965;28;20046;-80
2021/04/12 09:10:06;;;;;;;6.40;1.58;;;;;;;23.24;36.36;101903.03;4995704;28;20077;-80
2021/04/12 09:12:47;;;;;;;5.63;1.95;;;;;;;23.03;36.83;101898.94;4999454;28;20050;-80
2021/04/12 09:15:39;;;;;;;3.67;1.58;;;;;;;23.21;36.29;101885.13;5006383;28;20812;-79
2021/04/12 09:18:30;;;;;;;6.30;1.42;;;;;;;23.12;36.67;101890.69;5010775;28;20067;-76
2021/04/12 09:21:22;;;;;;;6.85;2.08;;;;;;;23.18;36.37;101905.84;5008784;28;20053;-78
2021/04/12 09:24:17;;;;;;;8.43;1.73;;;;;;;23.23;36.45;101912.97;4992754;28;20054;-77
2021/04/12 09:27:19;;;;;;;4.85;1.40;;;;;;;23.24;36.75;101898.53;5000336;28;20053;-78
2021/04/12 09:30:11;;;;;;;4.35;1.70;;;;;;;23.42;36.83;101900.03;4986341;28;20096;-78
2021/04/12 09:33:14;;;;;;;6.47;2.22;;;;;;;23.48;36.35;101886.44;4988404;28;20129;-77
2021/04/12 09:36:09;;;;;;;3.30;1.80;;;;;;;23.30;36.14;101898.41;4984606;28;20063;-78
2021/04/12 09:39:15;;;;;;;8.05;1.63;;;;;;;23.25;36.44;101884.16;5006028;28;20045;-77
2021/04/12 09:42:21;;;;;;;3.55;1.38;;;;;;;23.51;36.15;101889.06;5003244;28;20052;-76
2021/04/12 09:45:27;;;;;;;6.55;1.50;;;;;;;23.60;35.88;101894.28;4995181;28;20038;-77
2021/04/12 09:48:26;;;;;;;5.10;1.90;;;;;;;23.59;35.91;101897.00;4999446;28;20072;-78
2021/04/12 09:51:34;;;;;;;7.35;1.92;;;;;;;23.57;35.16;101882.66;4991085;28;20049;-77
2021/04/12 09:54:52;;;;;;;7.25;2.50;;;;;;;23.75;35.59;101879.63;4982755;28;20062;-78
2021/04/12 09:58:10;;;;;;;6.72;3.13;;;;;;;23.92;35.36;101882.81;5008959;28;20177;-78
2021/04/12 10:00:49;;;;;;;4.88;1.50;;;;;;;24.16;35.24;101882.28;5002611;28;20048;-79
2021/04/12 10:03:47;;;;;;;13.07;4.57;;;;;;;24.18;35.43;101893.94;4990716;28;20125;-77
2021/04/12 10:06:53;;;;;;;7.00;1.73;;;;;;;24.23;34.53;101886.66;4982797;28;20072;-79
2021/04/12 10:09:56;;;;;;;5.93;1.98;;;;;;;24.28;35.16;101883.88;5004087;28;24523;-80
2021/04/12 10:12:54;;;;;;;5.38;1.92;;;;;;;24.32;34.81;101874.75;4980104;28;20042;-81
2021/04/12 10:15:41;;;;;;;6.35;1.73;;;;;;;24.35;34.48;101879.22;5003918;28;20061;-79
2021/04/12 10:18:15;;;;;;;3.55;1.50;;;;;;;24.39;34.74;101875.50;4994470;28;20046;-80
2021/04/12 10:20:49;;;;;;;6.65;1.85;;;;;;;24.25;34.03;101888.44;4985617;28;20076;-79
2021/04/12 10:23:22;;;;;;;2.38;1.25;;;;;;;24.12;34.59;101877.88;5000871;28;20511;-79
2021/04/12 10:25:59;;;;;;;4.88;1.90;;;;;;;24.14;34.78;101885.94;5009016;28;20042;-78
2021/04/12 10:28:30;;;;;;;3.88;1.50;;;;;;;24.05;34.70;101872.66;5007853;28;20065;-79
2021/04/12 10:31:11;;;;;;;5.97;1.73;;;;;;;24.14;34.59;101870.66;5008665;28;20446;-79
2021/04/12 10:33:44;;;;;;;5.75;1.52;;;;;;;24.03;34.65;101871.78;5008753;28;20049;-80
2021/04/12 10:36:22;;;;;;;5.70;1.57;;;;;;;24.11;34.67;101877.91;5008768;28;20117;-79
2021/04/12 10:38:58;;;;;;;3.38;1.30;;;;;;;23.92;35.22;101879.25;5007271;28;20165;-80
2021/04/12 10:41:28;;;;;;;4.53;1.40;;;;;;;24.04;35.04;101876.28;4989158;28;20038;-80
2021/04/12 10:44:06;;;;;;;6.95;1.80;;;;;;;23.74;34.79;101859.84;5007833;28;20046;-78
2021/04/12 10:46:45;;;;;;;7.40;2.28;;;;;;;23.59;35.09;101857.47;5008216;28;20045;-79
2021/04/12 10:49:17;;;;;;;6.05;2.00;;;;;;;23.63;34.72;101845.66;5006663;28;20066;-79
2021/04/12 10:51:52;;;;;;;6.85;1.75;;;;;;;23.74;35.00;101838.28;5001126;28;20065;-78
2021/04/12 10:54:52;;;;;;;5.78;1.77;;;;;;;23.74;34.70;101840.06;5008425;28;20069;-79
2021/04/12 10:57:34;;;;;;;3.95;1.58;;;;;;;23.82;34.33;101851.59;4995347;28;20534;-79
2021/04/12 11:00:17;;;;;;;7.07;2.47;;;;;;;23.77;33.32;101853.47;5001763;28;20130;-78
2021/04/12 11:03:08;;;;;;;6.38;2.28;;;;;;;23.54;33.79;101855.78;5005560;28;20046;-79
2021/04/12 11:05:35;;;;;;;4.13;1.48;;;;;;;23.34;33.81;101843.56;5000386;28;20046;-76
2021/04/12 11:08:18;;;;;;;5.00;1.85;;;;;;;23.52;33.91;101852.22;5006089;28;20049;-77
2021/04/12 11:11:08;;;;;;;4.80;1.63;;;;;;;23.66;33.81;101845.63;5006664;28;20133;-77
2021/04/12 11:13:41;;;;;;;3.88;1.38;;;;;;;23.80;33.72;101843.53;5004077;28;20053;-77
2021/04/12 11:16:14;;;;;;;6.80;1.73;;;;;;;23.83;33.83;101838.03;4989444;28;20038;-78
2021/04/12 11:19:07;;;;;;;6.32;1.98;;;;;;;23.79;33.91;101836.34;5007047;28;20042;-78
2021/04/12 11:21:40;;;;;;;5.95;1.70;;;;;;;23.99;33.70;101845.81;5005974;28;20042;-78
2021/04/12 11:24:16;;;;;;;4.45;1.60;;;;;;;24.21;33.35;101849.84;5000300;28;20125;-78
2021/04/12 11:27:19;;;;;;;5.63;1.92;;;;;;;24.34;33.01;101845.03;5002326;28;20046;-78
2021/04/12 11:29:59;;;;;;;5.10;2.15;;;;;;;24.48;32.87;101854.56;4982275;28;20061;-78
2021/04/12 11:32:39;;;;;;;4.85;1.30;;;;;;;24.47;32.50;101841.13;5009419;28;20057;-78
2021/04/12 11:35:12;;;;;;;3.58;1.30;;;;;;;24.61;32.51;101831.72;5007535;28;20129;-77
2021/04/12 11:37:47;;;;;;;5.68;1.75;;;;;;;24.62;32.20;101836.19;5010296;28;20052;-78
2021/04/12 11:40:20;;;;;;;5.63;1.63;;;;;;;24.83;31.83;101840.16;5007676;28;20077;-77
2021/04/12 11:42:53;;;;;;;5.77;1.60;;;;;;;24.62;31.85;101829.91;5007756;28;20505;-78
2021/04/12 11:45:26;;;;;;;6.53;1.52;;;;;;;24.58;31.64;101822.81;5009210;28;20288;-76
2021/04/12 11:48:04;;;;;;;4.30;1.60;;;;;;;24.44;31.69;101820.47;5002742;28;20519;-78
2021/04/12 11:50:36;;;;;;;2.92;1.60;;;;;;;24.19;31.91;101820.19;5010170;28;20045;-78
2021/04/12 11:53:15;;;;;;;4.70;1.80;;;;;;;24.48;31.80;101830.25;4991518;28;20121;-77
2021/04/12 11:55:55;;;;;;;9.27;1.95;;;;;;;24.78;31.97;101825.91;5008910;28;20384;-78
2021/04/12 11:58:28;;;;;;;4.47;1.80;;;;;;;25.10;31.66;101833.16;4992189;28;20070;-78
2021/04/12 12:01:08;;;;;;;6.10;1.50;;;;;;;25.09;31.14;101833.19;4992370;28;20042;-78
2021/04/12 12:04:09;;;;;;;3.40;1.30;;;;;;;24.92;31.39;101833.69;4991622;28;20491;-76
2021/04/12 12:06:44;;;;;;;6.00;1.83;;;;;;;24.99;31.32;101838.88;5010885;28;20042;-75
2021/04/12 12:09:21;;;;;;;4.47;1.70;;;;;;;24.91;31.08;101845.41;5003455;28;20072;-79
2021/04/12 12:12:01;;;;;;;4.38;1.40;;;;;;;25.08;30.44;101845.84;5006191;28;20042;-78
2021/04/12 12:14:35;;;;;;;4.38;1.30;;;;;;;25.06;30.71;101826.09;4993749;28;20091;-78
2021/04/12 12:17:07;;;;;;;3.13;1.35;;;;;;;24.94;30.81;101826.44;4984761;28;20105;-80
2021/04/12 12:19:47;;;;;;;3.17;1.10;;;;;;;24.77;30.98;101832.22;5008371;28;20466;-76
2021/04/12 12:22:21;;;;;;;7.22;1.73;;;;;;;24.74;31.00;101835.03;5009594;28;20864;-76
2021/04/12 12:25:00;;;;;;;3.95;1.38;;;;;;;24.88;30.72;101848.13;5010114;28;20058;-76
2021/04/12 12:27:33;;;;;;;4.82;1.58;;;;;;;24.90;30.66;101835.53;5010884;28;20077;-75
2021/04/12 12:30:10;;;;;;;3.53;1.42;;;;;;;25.02;30.88;101832.50;5010391;28;20038;-78
2021/04/12 12:32:51;;;;;;;5.00;2.45;;;;;;;25.16;31.12;101822.19;4997090;28;20534;-76
2021/04/12 12:35:37;;;;;;;7.35;2.78;;;;;;;25.37;30.95;101820.69;5004483;28;20034;-79
2021/04/12 12:38:27;;;;;;;4.22;1.73;;;;;;;25.21;30.41;101824.75;5009925;28;20038;-79
2021/04/12 12:40:58;;;;;;;4.07;1.92;;;;;;;25.01;31.05;101812.69;4988363;28;20047;-76
2021/04/12 12:43:29;;;;;;;6.57;2.55;;;;;;;24.97;31.22;101811.00;5009320;28;20133;-76
2021/04/12 12:46:06;;;;;;;8.10;2.67;;;;;;;25.35;31.22;101804.50;5010118;28;20494;-76
2021/04/12 12:48:36;;;;;;;6.03;2.88;;;;;;;25.31;31.32;101807.34;4990742;28;20042;-75
2021/04/12 12:51:16;;;;;;;5.75;1.58;;;;;;;25.46;30.88;101797.94;5010206;28;20048;-77
2021/04/12 12:53:47;;;;;;;4.97;1.90;;;;;;;25.51;31.24;101787.84;5010497;28;20125;-76
2021/04/12 12:56:23;;;;;;;2.83;1.23;;;;;;;25.79;30.62;101794.25;5005428;28;20034;-76
2021/04/12 12:58:57;;;;;;;4.80;1.90;;;;;;;25.67;30.77;101792.78;5009189;28;20686;-76
2021/04/12 13:01:28;;;;;;;;;;;;;;;25.62;31.10;101799.25;4992723;28;20384;-76
2021/04/12 13:04:07;;;;;;;3.70;1.50;;;;;;;25.55;31.56;101794.94;5009474;28;20412;-76
2021/04/12 13:06:37;;;;;;;7.57;2.38;;;;;;;25.55;31.44;101787.69;5009268;28;20068;-78
2021/04/12 13:09:14;;;;;;;7.07;2.50;;;;;;;25.82;31.20;101786.00;5009138;28;20069;-77
2021/04/12 13:11:45;;;;;;;5.18;1.58;;;;;;;25.76;30.85;101778.09;4999896;28;20049;-77